sensor_id;sensor_type;location;lat;lon;timestamp;temperature;humidity
77582;DHT22;66726;52.388;9.986;2023-07-20T00:00:25;18.50;90.40
77582;DHT22;66726;52.388;9.986;2023-07-20T00:03:10;18.60;90.30
77582;DHT22;66726;52.388;9.986;2023-07-20T00:05:48;18.40;90.50
77582;DHT22;66726;52.388;9.986;2023-07-20T00:08:20;18.40;90.50
77582;DHT22;66726;52.388;9.986;2023-07-20T00:10:54;18.40;90.60
77582;DHT22;66726;52.388;9.986;2023-07-20T00:13:25;18.50;90.60
77582;DHT22;66726;52.388;9.986;2023-07-20T00:15:57;18.30;90.90
77582;DHT22;66726;52.388;9.986;2023-07-20T00:18:29;18.20;91.10
77582;DHT22;66726;52.388;9.986;2023-07-20T00:21:01;18.10;91.50
77582;DHT22;66726;52.388;9.986;2023-07-20T00:23:33;18.10;91.60
77582;DHT22;66726;52.388;9.986;2023-07-20T00:26:06;18.00;91.60
77582;DHT22;66726;52.388;9.986;2023-07-20T00:28:38;18.00;92.20
77582;DHT22;66726;52.388;9.986;2023-07-20T00:31:10;18.00;91.90
77582;DHT22;66726;52.388;9.986;2023-07-20T00:33:42;17.90;92.00
77582;DHT22;66726;52.388;9.986;2023-07-20T00:36:14;18.00;92.20
77582;DHT22;66726;52.388;9.986;2023-07-20T00:38:46;18.00;92.00
77582;DHT22;66726;52.388;9.986;2023-07-20T00:41:19;17.90;92.20
77582;DHT22;66726;52.388;9.986;2023-07-20T00:43:52;18.00;92.10
77582;DHT22;66726;52.388;9.986;2023-07-20T00:46:25;17.90;92.10
77582;DHT22;66726;52.388;9.986;2023-07-20T00:48:59;18.00;92.00
77582;DHT22;66726;52.388;9.986;2023-07-20T00:51:31;17.90;91.90
77582;DHT22;66726;52.388;9.986;2023-07-20T00:54:03;17.90;92.30
77582;DHT22;66726;52.388;9.986;2023-07-20T00:56:38;17.90;92.30
77582;DHT22;66726;52.388;9.986;2023-07-20T00:59:12;17.90;92.20
77582;DHT22;66726;52.388;9.986;2023-07-20T01:01:44;17.90;92.30
77582;DHT22;66726;52.388;9.986;2023-07-20T01:04:17;18.00;92.00
77582;DHT22;66726;52.388;9.986;2023-07-20T01:06:53;17.80;92.10
77582;DHT22;66726;52.388;9.986;2023-07-20T01:09:37;17.80;92.20
77582;DHT22;66726;52.388;9.986;2023-07-20T01:12:18;17.80;92.20
77582;DHT22;66726;52.388;9.986;2023-07-20T01:14:55;17.70;92.50
77582;DHT22;66726;52.388;9.986;2023-07-20T01:17:27;17.60;92.60
77582;DHT22;66726;52.388;9.986;2023-07-20T01:19:59;17.80;92.30
77582;DHT22;66726;52.388;9.986;2023-07-20T01:22:47;17.70;92.30
77582;DHT22;66726;52.388;9.986;2023-07-20T01:25:58;17.70;92.50
77582;DHT22;66726;52.388;9.986;2023-07-20T01:28:54;17.50;92.60
77582;DHT22;66726;52.388;9.986;2023-07-20T01:31:40;17.40;92.90
77582;DHT22;66726;52.388;9.986;2023-07-20T01:34:19;17.60;92.80
77582;DHT22;66726;52.388;9.986;2023-07-20T01:36:54;17.40;92.90
77582;DHT22;66726;52.388;9.986;2023-07-20T01:39:26;17.40;92.90
77582;DHT22;66726;52.388;9.986;2023-07-20T01:41:59;17.60;92.70
77582;DHT22;66726;52.388;9.986;2023-07-20T01:44:32;17.40;93.00
77582;DHT22;66726;52.388;9.986;2023-07-20T01:47:06;17.40;93.10
77582;DHT22;66726;52.388;9.986;2023-07-20T01:49:37;17.30;93.30
77582;DHT22;66726;52.388;9.986;2023-07-20T01:52:09;17.30;93.40
77582;DHT22;66726;52.388;9.986;2023-07-20T01:54:41;17.30;93.40
77582;DHT22;66726;52.388;9.986;2023-07-20T01:57:13;17.30;93.50
77582;DHT22;66726;52.388;9.986;2023-07-20T01:59:47;17.40;93.50
77582;DHT22;66726;52.388;9.986;2023-07-20T02:02:20;17.50;93.30
77582;DHT22;66726;52.388;9.986;2023-07-20T02:04:53;17.30;93.30
77582;DHT22;66726;52.388;9.986;2023-07-20T02:07:25;17.40;93.40
77582;DHT22;66726;52.388;9.986;2023-07-20T02:09:57;17.30;93.50
77582;DHT22;66726;52.388;9.986;2023-07-20T02:12:29;17.30;93.70
77582;DHT22;66726;52.388;9.986;2023-07-20T02:15:01;17.20;93.60
77582;DHT22;66726;52.388;9.986;2023-07-20T02:17:34;17.10;94.20
77582;DHT22;66726;52.388;9.986;2023-07-20T02:20:09;17.00;94.20
77582;DHT22;66726;52.388;9.986;2023-07-20T02:22:42;17.00;94.70
77582;DHT22;66726;52.388;9.986;2023-07-20T02:25:14;17.10;94.40
77582;DHT22;66726;52.388;9.986;2023-07-20T02:27:46;17.20;94.60
77582;DHT22;66726;52.388;9.986;2023-07-20T02:30:17;17.10;94.50
77582;DHT22;66726;52.388;9.986;2023-07-20T02:32:51;17.20;94.40
77582;DHT22;66726;52.388;9.986;2023-07-20T02:35:23;17.20;94.50
77582;DHT22;66726;52.388;9.986;2023-07-20T02:37:55;17.10;94.80
77582;DHT22;66726;52.388;9.986;2023-07-20T02:40:27;17.20;94.50
77582;DHT22;66726;52.388;9.986;2023-07-20T02:42:59;17.20;94.50
77582;DHT22;66726;52.388;9.986;2023-07-20T02:45:31;17.10;94.60
77582;DHT22;66726;52.388;9.986;2023-07-20T02:48:04;17.10;95.20
77582;DHT22;66726;52.388;9.986;2023-07-20T02:50:36;17.00;95.10
77582;DHT22;66726;52.388;9.986;2023-07-20T02:53:08;17.00;95.20
77582;DHT22;66726;52.388;9.986;2023-07-20T02:55:40;17.10;95.10
77582;DHT22;66726;52.388;9.986;2023-07-20T02:58:12;17.00;95.20
77582;DHT22;66726;52.388;9.986;2023-07-20T03:00:44;16.90;95.30
77582;DHT22;66726;52.388;9.986;2023-07-20T03:03:17;16.90;95.50
77582;DHT22;66726;52.388;9.986;2023-07-20T03:05:49;17.00;95.90
77582;DHT22;66726;52.388;9.986;2023-07-20T03:08:23;17.00;95.70
77582;DHT22;66726;52.388;9.986;2023-07-20T03:10:54;17.00;95.70
77582;DHT22;66726;52.388;9.986;2023-07-20T03:13:26;17.10;95.70
77582;DHT22;66726;52.388;9.986;2023-07-20T03:15:59;16.90;95.80
77582;DHT22;66726;52.388;9.986;2023-07-20T03:18:32;16.90;95.90
77582;DHT22;66726;52.388;9.986;2023-07-20T03:21:04;16.90;95.90
77582;DHT22;66726;52.388;9.986;2023-07-20T03:23:37;16.80;96.10
77582;DHT22;66726;52.388;9.986;2023-07-20T03:26:10;16.80;96.20
77582;DHT22;66726;52.388;9.986;2023-07-20T03:28:42;16.80;96.30
77582;DHT22;66726;52.388;9.986;2023-07-20T03:31:14;16.80;96.20
77582;DHT22;66726;52.388;9.986;2023-07-20T03:33:47;16.70;96.30
77582;DHT22;66726;52.388;9.986;2023-07-20T03:36:19;16.70;96.40
77582;DHT22;66726;52.388;9.986;2023-07-20T03:38:51;16.70;96.50
77582;DHT22;66726;52.388;9.986;2023-07-20T03:41:24;16.70;96.50
77582;DHT22;66726;52.388;9.986;2023-07-20T03:43:58;16.70;96.50
77582;DHT22;66726;52.388;9.986;2023-07-20T03:46:30;16.70;96.80
77582;DHT22;66726;52.388;9.986;2023-07-20T03:49:04;16.70;96.60
77582;DHT22;66726;52.388;9.986;2023-07-20T03:51:37;16.70;96.40
77582;DHT22;66726;52.388;9.986;2023-07-20T03:54:09;16.70;96.30
77582;DHT22;66726;52.388;9.986;2023-07-20T03:56:41;16.90;96.20
77582;DHT22;66726;52.388;9.986;2023-07-20T03:59:13;16.80;96.30
77582;DHT22;66726;52.388;9.986;2023-07-20T04:01:45;16.90;96.60
77582;DHT22;66726;52.388;9.986;2023-07-20T04:04:18;16.80;96.20
77582;DHT22;66726;52.388;9.986;2023-07-20T04:06:50;16.80;96.20
77582;DHT22;66726;52.388;9.986;2023-07-20T04:09:22;16.80;96.80
77582;DHT22;66726;52.388;9.986;2023-07-20T04:11:54;16.80;96.50
77582;DHT22;66726;52.388;9.986;2023-07-20T04:14:26;16.80;96.60
77582;DHT22;66726;52.388;9.986;2023-07-20T04:16:58;16.80;96.80
77582;DHT22;66726;52.388;9.986;2023-07-20T04:19:31;16.80;96.90
77582;DHT22;66726;52.388;9.986;2023-07-20T04:22:03;16.80;96.90
77582;DHT22;66726;52.388;9.986;2023-07-20T04:24:35;16.80;96.90
77582;DHT22;66726;52.388;9.986;2023-07-20T04:27:07;16.80;96.70
77582;DHT22;66726;52.388;9.986;2023-07-20T04:29:39;16.90;96.60
77582;DHT22;66726;52.388;9.986;2023-07-20T04:32:11;16.80;96.80
77582;DHT22;66726;52.388;9.986;2023-07-20T04:34:44;16.80;97.10
77582;DHT22;66726;52.388;9.986;2023-07-20T04:37:16;16.80;97.00
77582;DHT22;66726;52.388;9.986;2023-07-20T04:39:48;16.70;96.70
77582;DHT22;66726;52.388;9.986;2023-07-20T04:42:20;16.80;97.10
77582;DHT22;66726;52.388;9.986;2023-07-20T04:44:52;16.80;97.30
77582;DHT22;66726;52.388;9.986;2023-07-20T04:47:24;16.80;97.50
77582;DHT22;66726;52.388;9.986;2023-07-20T04:49:57;16.80;97.50
77582;DHT22;66726;52.388;9.986;2023-07-20T04:52:29;16.70;98.00
77582;DHT22;66726;52.388;9.986;2023-07-20T04:55:10;16.70;98.80
77582;DHT22;66726;52.388;9.986;2023-07-20T04:57:42;16.70;99.00
77582;DHT22;66726;52.388;9.986;2023-07-20T05:00:15;16.60;99.80
77582;DHT22;66726;52.388;9.986;2023-07-20T05:02:50;16.60;99.80
77582;DHT22;66726;52.388;9.986;2023-07-20T05:05:23;16.60;99.90
77582;DHT22;66726;52.388;9.986;2023-07-20T05:07:55;16.60;99.90
77582;DHT22;66726;52.388;9.986;2023-07-20T05:10:27;16.60;99.90
77582;DHT22;66726;52.388;9.986;2023-07-20T05:12:59;16.60;99.90
77582;DHT22;66726;52.388;9.986;2023-07-20T05:15:32;16.60;99.90
77582;DHT22;66726;52.388;9.986;2023-07-20T05:18:05;16.60;99.90
77582;DHT22;66726;52.388;9.986;2023-07-20T05:20:38;16.50;99.90
77582;DHT22;66726;52.388;9.986;2023-07-20T05:23:10;16.40;99.90
77582;DHT22;66726;52.388;9.986;2023-07-20T05:25:42;16.30;99.90
77582;DHT22;66726;52.388;9.986;2023-07-20T05:28:14;16.30;99.90
77582;DHT22;66726;52.388;9.986;2023-07-20T05:30:46;16.30;99.90
77582;DHT22;66726;52.388;9.986;2023-07-20T05:33:21;16.20;99.90
77582;DHT22;66726;52.388;9.986;2023-07-20T05:35:54;16.20;99.90
77582;DHT22;66726;52.388;9.986;2023-07-20T05:38:26;16.10;99.90
77582;DHT22;66726;52.388;9.986;2023-07-20T05:41:03;16.10;99.90
77582;DHT22;66726;52.388;9.986;2023-07-20T05:43:38;16.00;99.90
77582;DHT22;66726;52.388;9.986;2023-07-20T05:46:10;16.10;99.90
77582;DHT22;66726;52.388;9.986;2023-07-20T05:48:42;16.10;99.90
77582;DHT22;66726;52.388;9.986;2023-07-20T05:51:15;16.10;99.90
77582;DHT22;66726;52.388;9.986;2023-07-20T05:53:47;16.10;99.90
77582;DHT22;66726;52.388;9.986;2023-07-20T05:56:19;16.20;99.90
77582;DHT22;66726;52.388;9.986;2023-07-20T05:58:52;16.10;99.90
77582;DHT22;66726;52.388;9.986;2023-07-20T06:01:23;16.10;99.90
77582;DHT22;66726;52.388;9.986;2023-07-20T06:03:56;16.20;99.90
77582;DHT22;66726;52.388;9.986;2023-07-20T06:06:30;16.20;99.90
77582;DHT22;66726;52.388;9.986;2023-07-20T06:09:02;16.10;99.90
77582;DHT22;66726;52.388;9.986;2023-07-20T06:11:38;16.10;99.90
77582;DHT22;66726;52.388;9.986;2023-07-20T06:14:10;16.20;99.90
77582;DHT22;66726;52.388;9.986;2023-07-20T06:16:43;16.10;99.90
77582;DHT22;66726;52.388;9.986;2023-07-20T06:19:16;16.10;99.90
77582;DHT22;66726;52.388;9.986;2023-07-20T06:21:49;16.00;99.90
77582;DHT22;66726;52.388;9.986;2023-07-20T06:24:21;16.00;99.90
77582;DHT22;66726;52.388;9.986;2023-07-20T06:26:53;16.10;99.90
77582;DHT22;66726;52.388;9.986;2023-07-20T06:29:24;16.10;99.90
77582;DHT22;66726;52.388;9.986;2023-07-20T06:31:56;16.10;99.90
77582;DHT22;66726;52.388;9.986;2023-07-20T06:34:28;16.10;99.90
77582;DHT22;66726;52.388;9.986;2023-07-20T06:37:06;16.20;99.90
77582;DHT22;66726;52.388;9.986;2023-07-20T06:39:38;16.10;99.90
77582;DHT22;66726;52.388;9.986;2023-07-20T06:42:13;16.10;99.90
77582;DHT22;66726;52.388;9.986;2023-07-20T06:44:45;16.20;99.90
77582;DHT22;66726;52.388;9.986;2023-07-20T06:47:17;16.20;99.90
77582;DHT22;66726;52.388;9.986;2023-07-20T06:49:49;16.00;99.90
77582;DHT22;66726;52.388;9.986;2023-07-20T06:52:22;16.00;99.90
77582;DHT22;66726;52.388;9.986;2023-07-20T06:54:54;16.10;99.90
77582;DHT22;66726;52.388;9.986;2023-07-20T06:57:29;16.20;99.90
77582;DHT22;66726;52.388;9.986;2023-07-20T07:00:01;16.30;99.90
77582;DHT22;66726;52.388;9.986;2023-07-20T07:02:34;16.30;99.90
77582;DHT22;66726;52.388;9.986;2023-07-20T07:05:08;16.20;99.90
77582;DHT22;66726;52.388;9.986;2023-07-20T07:07:46;16.20;99.90
77582;DHT22;66726;52.388;9.986;2023-07-20T07:10:18;16.20;99.90
77582;DHT22;66726;52.388;9.986;2023-07-20T07:12:50;16.10;99.90
77582;DHT22;66726;52.388;9.986;2023-07-20T07:15:21;16.00;99.90
77582;DHT22;66726;52.388;9.986;2023-07-20T07:17:54;16.10;99.90
77582;DHT22;66726;52.388;9.986;2023-07-20T07:20:27;16.20;99.90
77582;DHT22;66726;52.388;9.986;2023-07-20T07:23:01;16.20;99.90
77582;DHT22;66726;52.388;9.986;2023-07-20T07:25:32;16.30;99.90
77582;DHT22;66726;52.388;9.986;2023-07-20T07:28:04;16.40;99.90
77582;DHT22;66726;52.388;9.986;2023-07-20T07:30:36;16.40;99.90
77582;DHT22;66726;52.388;9.986;2023-07-20T07:33:08;16.40;99.90
77582;DHT22;66726;52.388;9.986;2023-07-20T07:35:40;16.50;99.90
77582;DHT22;66726;52.388;9.986;2023-07-20T07:38:14;16.60;99.90
77582;DHT22;66726;52.388;9.986;2023-07-20T07:41:06;16.60;99.90
77582;DHT22;66726;52.388;9.986;2023-07-20T07:43:38;16.60;99.90
77582;DHT22;66726;52.388;9.986;2023-07-20T07:46:10;16.70;99.90
77582;DHT22;66726;52.388;9.986;2023-07-20T07:48:42;16.90;99.90
77582;DHT22;66726;52.388;9.986;2023-07-20T07:51:14;16.80;99.90
77582;DHT22;66726;52.388;9.986;2023-07-20T07:53:48;16.90;99.70
77582;DHT22;66726;52.388;9.986;2023-07-20T07:56:20;17.00;99.90
77582;DHT22;66726;52.388;9.986;2023-07-20T07:58:55;17.10;99.50
77582;DHT22;66726;52.388;9.986;2023-07-20T08:01:27;17.10;99.40
77582;DHT22;66726;52.388;9.986;2023-07-20T08:03:59;17.00;98.70
77582;DHT22;66726;52.388;9.986;2023-07-20T08:06:32;17.00;98.50
77582;DHT22;66726;52.388;9.986;2023-07-20T08:09:05;17.10;98.50
77582;DHT22;66726;52.388;9.986;2023-07-20T08:11:37;17.20;98.30
77582;DHT22;66726;52.388;9.986;2023-07-20T08:14:10;17.30;97.30
77582;DHT22;66726;52.388;9.986;2023-07-20T08:16:42;17.50;95.80
77582;DHT22;66726;52.388;9.986;2023-07-20T08:19:14;17.60;95.20
77582;DHT22;66726;52.388;9.986;2023-07-20T08:21:46;17.60;95.20
77582;DHT22;66726;52.388;9.986;2023-07-20T08:24:19;17.70;94.20
77582;DHT22;66726;52.388;9.986;2023-07-20T08:26:51;17.70;93.80
77582;DHT22;66726;52.388;9.986;2023-07-20T08:29:23;17.90;93.80
77582;DHT22;66726;52.388;9.986;2023-07-20T08:31:56;18.00;94.20
77582;DHT22;66726;52.388;9.986;2023-07-20T08:34:28;18.00;94.00
77582;DHT22;66726;52.388;9.986;2023-07-20T08:37:00;18.00;92.60
77582;DHT22;66726;52.388;9.986;2023-07-20T08:39:33;18.00;92.60
77582;DHT22;66726;52.388;9.986;2023-07-20T08:42:07;18.00;92.50
77582;DHT22;66726;52.388;9.986;2023-07-20T08:44:40;18.00;93.30
77582;DHT22;66726;52.388;9.986;2023-07-20T08:47:14;18.00;93.10
77582;DHT22;66726;52.388;9.986;2023-07-20T08:49:50;17.90;92.40
77582;DHT22;66726;52.388;9.986;2023-07-20T08:52:24;18.00;92.60
77582;DHT22;66726;52.388;9.986;2023-07-20T08:54:57;18.00;90.90
77582;DHT22;66726;52.388;9.986;2023-07-20T08:57:33;18.10;91.40
77582;DHT22;66726;52.388;9.986;2023-07-20T09:00:04;18.30;88.80
77582;DHT22;66726;52.388;9.986;2023-07-20T09:02:41;18.40;90.20
77582;DHT22;66726;52.388;9.986;2023-07-20T09:05:14;18.60;91.10
77582;DHT22;66726;52.388;9.986;2023-07-20T09:07:48;18.60;86.20
77582;DHT22;66726;52.388;9.986;2023-07-20T09:10:22;18.50;86.60
77582;DHT22;66726;52.388;9.986;2023-07-20T09:12:55;18.50;87.40
77582;DHT22;66726;52.388;9.986;2023-07-20T09:15:28;18.60;88.90
77582;DHT22;66726;52.388;9.986;2023-07-20T09:18:03;18.80;87.80
77582;DHT22;66726;52.388;9.986;2023-07-20T09:20:35;18.90;88.30
77582;DHT22;66726;52.388;9.986;2023-07-20T09:23:07;19.10;87.40
77582;DHT22;66726;52.388;9.986;2023-07-20T09:25:42;19.20;87.00
77582;DHT22;66726;52.388;9.986;2023-07-20T09:28:14;19.10;84.90
77582;DHT22;66726;52.388;9.986;2023-07-20T09:30:46;19.00;86.90
77582;DHT22;66726;52.388;9.986;2023-07-20T09:33:24;19.10;85.90
77582;DHT22;66726;52.388;9.986;2023-07-20T09:35:56;19.00;87.80
77582;DHT22;66726;52.388;9.986;2023-07-20T09:38:53;19.00;85.50
77582;DHT22;66726;52.388;9.986;2023-07-20T09:41:29;19.00;85.30
77582;DHT22;66726;52.388;9.986;2023-07-20T09:44:15;19.00;82.40
77582;DHT22;66726;52.388;9.986;2023-07-20T09:46:51;19.10;82.40
77582;DHT22;66726;52.388;9.986;2023-07-20T09:49:27;19.20;80.20
77582;DHT22;66726;52.388;9.986;2023-07-20T09:52:19;19.30;80.60
77582;DHT22;66726;52.388;9.986;2023-07-20T09:54:54;19.30;82.50
77582;DHT22;66726;52.388;9.986;2023-07-20T09:57:29;19.60;81.50
77582;DHT22;66726;52.388;9.986;2023-07-20T10:00:02;19.70;79.70
77582;DHT22;66726;52.388;9.986;2023-07-20T10:02:45;19.70;78.10
77582;DHT22;66726;52.388;9.986;2023-07-20T10:05:21;19.80;78.10
77582;DHT22;66726;52.388;9.986;2023-07-20T10:07:54;19.80;79.80
77582;DHT22;66726;52.388;9.986;2023-07-20T10:10:31;20.00;73.00
77582;DHT22;66726;52.388;9.986;2023-07-20T10:13:05;20.10;70.50
77582;DHT22;66726;52.388;9.986;2023-07-20T10:15:46;20.10;72.20
77582;DHT22;66726;52.388;9.986;2023-07-20T10:18:22;20.30;72.30
77582;DHT22;66726;52.388;9.986;2023-07-20T10:21:01;20.40;75.70
77582;DHT22;66726;52.388;9.986;2023-07-20T10:23:39;20.30;73.50
77582;DHT22;66726;52.388;9.986;2023-07-20T10:26:12;20.20;76.50
77582;DHT22;66726;52.388;9.986;2023-07-20T10:28:46;20.20;75.20
77582;DHT22;66726;52.388;9.986;2023-07-20T10:31:19;20.30;74.10
77582;DHT22;66726;52.388;9.986;2023-07-20T10:33:52;20.30;74.40
77582;DHT22;66726;52.388;9.986;2023-07-20T10:36:29;20.50;74.80
77582;DHT22;66726;52.388;9.986;2023-07-20T10:39:00;20.40;73.10
77582;DHT22;66726;52.388;9.986;2023-07-20T10:41:37;20.30;73.20
77582;DHT22;66726;52.388;9.986;2023-07-20T10:44:13;20.30;74.20
77582;DHT22;66726;52.388;9.986;2023-07-20T10:46:49;20.50;74.20
77582;DHT22;66726;52.388;9.986;2023-07-20T10:49:28;20.60;72.40
77582;DHT22;66726;52.388;9.986;2023-07-20T10:52:05;20.60;70.90
77582;DHT22;66726;52.388;9.986;2023-07-20T10:54:49;20.60;70.70
77582;DHT22;66726;52.388;9.986;2023-07-20T10:57:32;20.50;73.00
77582;DHT22;66726;52.388;9.986;2023-07-20T11:00:19;20.60;72.50
77582;DHT22;66726;52.388;9.986;2023-07-20T11:03:00;20.70;73.50
77582;DHT22;66726;52.388;9.986;2023-07-20T11:05:39;20.90;69.80
77582;DHT22;66726;52.388;9.986;2023-07-20T11:08:12;21.10;69.20
77582;DHT22;66726;52.388;9.986;2023-07-20T11:11:22;21.20;69.10
77582;DHT22;66726;52.388;9.986;2023-07-20T11:13:57;21.30;67.90
77582;DHT22;66726;52.388;9.986;2023-07-20T11:16:41;21.40;69.50
77582;DHT22;66726;52.388;9.986;2023-07-20T11:19:18;21.50;66.50
77582;DHT22;66726;52.388;9.986;2023-07-20T11:21:56;21.60;67.50
77582;DHT22;66726;52.388;9.986;2023-07-20T11:24:32;21.70;69.80
77582;DHT22;66726;52.388;9.986;2023-07-20T11:27:08;21.60;65.80
77582;DHT22;66726;52.388;9.986;2023-07-20T11:29:39;21.70;66.00
77582;DHT22;66726;52.388;9.986;2023-07-20T11:32:12;21.70;66.50
77582;DHT22;66726;52.388;9.986;2023-07-20T11:34:52;21.80;65.50
77582;DHT22;66726;52.388;9.986;2023-07-20T11:37:24;22.00;65.80
77582;DHT22;66726;52.388;9.986;2023-07-20T11:39:57;22.10;64.30
77582;DHT22;66726;52.388;9.986;2023-07-20T11:42:29;22.00;64.00
77582;DHT22;66726;52.388;9.986;2023-07-20T11:45:05;21.80;63.10
77582;DHT22;66726;52.388;9.986;2023-07-20T11:47:43;21.70;65.00
77582;DHT22;66726;52.388;9.986;2023-07-20T11:50:15;21.50;65.00
77582;DHT22;66726;52.388;9.986;2023-07-20T11:52:46;21.50;65.10
77582;DHT22;66726;52.388;9.986;2023-07-20T11:55:18;21.40;64.40
77582;DHT22;66726;52.388;9.986;2023-07-20T11:58:04;21.40;65.20
77582;DHT22;66726;52.388;9.986;2023-07-20T12:00:38;21.40;65.50
77582;DHT22;66726;52.388;9.986;2023-07-20T12:03:14;21.40;65.60
77582;DHT22;66726;52.388;9.986;2023-07-20T12:05:47;21.30;65.40
77582;DHT22;66726;52.388;9.986;2023-07-20T12:08:29;21.30;66.30
77582;DHT22;66726;52.388;9.986;2023-07-20T12:11:01;21.40;67.50
77582;DHT22;66726;52.388;9.986;2023-07-20T12:13:41;21.80;65.80
77582;DHT22;66726;52.388;9.986;2023-07-20T12:16:18;21.80;64.90
77582;DHT22;66726;52.388;9.986;2023-07-20T12:18:59;21.70;62.80
77582;DHT22;66726;52.388;9.986;2023-07-20T12:21:33;21.70;65.20
77582;DHT22;66726;52.388;9.986;2023-07-20T12:24:07;21.60;64.20
77582;DHT22;66726;52.388;9.986;2023-07-20T12:26:42;21.70;65.20
77582;DHT22;66726;52.388;9.986;2023-07-20T12:29:14;21.70;65.50
77582;DHT22;66726;52.388;9.986;2023-07-20T12:31:46;21.90;64.20
77582;DHT22;66726;52.388;9.986;2023-07-20T12:34:20;22.10;64.70
77582;DHT22;66726;52.388;9.986;2023-07-20T12:36:52;22.20;63.20
77582;DHT22;66726;52.388;9.986;2023-07-20T12:39:24;22.10;64.00
77582;DHT22;66726;52.388;9.986;2023-07-20T12:41:56;22.00;63.20
77582;DHT22;66726;52.388;9.986;2023-07-20T12:44:28;21.90;64.70
77582;DHT22;66726;52.388;9.986;2023-07-20T12:47:00;21.80;64.70
77582;DHT22;66726;52.388;9.986;2023-07-20T12:49:33;21.80;64.80
77582;DHT22;66726;52.388;9.986;2023-07-20T12:52:04;21.80;65.00
77582;DHT22;66726;52.388;9.986;2023-07-20T12:54:37;21.80;65.90
77582;DHT22;66726;52.388;9.986;2023-07-20T12:57:09;21.80;66.10
77582;DHT22;66726;52.388;9.986;2023-07-20T12:59:40;21.80;66.00
77582;DHT22;66726;52.388;9.986;2023-07-20T13:02:14;22.00;65.60
77582;DHT22;66726;52.388;9.986;2023-07-20T13:04:47;22.20;64.90
77582;DHT22;66726;52.388;9.986;2023-07-20T13:07:29;22.20;62.40
77582;DHT22;66726;52.388;9.986;2023-07-20T13:10:05;22.30;63.40
77582;DHT22;66726;52.388;9.986;2023-07-20T13:12:39;22.30;61.20
77582;DHT22;66726;52.388;9.986;2023-07-20T13:15:13;22.30;63.70
77582;DHT22;66726;52.388;9.986;2023-07-20T13:17:45;22.20;62.10
77582;DHT22;66726;52.388;9.986;2023-07-20T13:20:18;22.30;60.90
77582;DHT22;66726;52.388;9.986;2023-07-20T13:22:50;22.40;61.20
77582;DHT22;66726;52.388;9.986;2023-07-20T13:25:22;22.30;61.60
77582;DHT22;66726;52.388;9.986;2023-07-20T13:27:54;22.30;62.40
77582;DHT22;66726;52.388;9.986;2023-07-20T13:30:28;22.30;62.10
77582;DHT22;66726;52.388;9.986;2023-07-20T13:33:00;22.40;62.40
77582;DHT22;66726;52.388;9.986;2023-07-20T13:35:36;22.50;58.70
77582;DHT22;66726;52.388;9.986;2023-07-20T13:38:11;22.40;59.20
77582;DHT22;66726;52.388;9.986;2023-07-20T13:40:43;22.30;57.30
77582;DHT22;66726;52.388;9.986;2023-07-20T13:43:17;22.20;58.20
77582;DHT22;66726;52.388;9.986;2023-07-20T13:45:50;22.20;59.50
77582;DHT22;66726;52.388;9.986;2023-07-20T13:48:24;22.20;58.60
77582;DHT22;66726;52.388;9.986;2023-07-20T13:50:58;22.20;59.00
77582;DHT22;66726;52.388;9.986;2023-07-20T13:53:30;22.10;60.90
77582;DHT22;66726;52.388;9.986;2023-07-20T13:56:05;22.00;62.00
77582;DHT22;66726;52.388;9.986;2023-07-20T13:58:39;22.00;61.90
77582;DHT22;66726;52.388;9.986;2023-07-20T14:01:11;22.10;61.70
77582;DHT22;66726;52.388;9.986;2023-07-20T14:03:57;22.40;61.30
77582;DHT22;66726;52.388;9.986;2023-07-20T14:06:35;22.70;60.60
77582;DHT22;66726;52.388;9.986;2023-07-20T14:09:07;22.60;59.30
77582;DHT22;66726;52.388;9.986;2023-07-20T14:11:39;22.50;60.10
77582;DHT22;66726;52.388;9.986;2023-07-20T14:14:13;22.40;60.30
77582;DHT22;66726;52.388;9.986;2023-07-20T14:16:45;22.40;61.80
77582;DHT22;66726;52.388;9.986;2023-07-20T14:19:17;22.30;61.60
77582;DHT22;66726;52.388;9.986;2023-07-20T14:21:51;22.40;60.60
77582;DHT22;66726;52.388;9.986;2023-07-20T14:24:23;22.60;61.10
77582;DHT22;66726;52.388;9.986;2023-07-20T14:26:55;22.70;60.30
77582;DHT22;66726;52.388;9.986;2023-07-20T14:29:30;22.80;59.90
77582;DHT22;66726;52.388;9.986;2023-07-20T14:32:07;22.80;60.60
77582;DHT22;66726;52.388;9.986;2023-07-20T14:34:40;22.80;60.20
77582;DHT22;66726;52.388;9.986;2023-07-20T14:37:16;22.70;59.10
77582;DHT22;66726;52.388;9.986;2023-07-20T14:39:49;22.40;59.80
77582;DHT22;66726;52.388;9.986;2023-07-20T14:42:22;22.30;60.90
77582;DHT22;66726;52.388;9.986;2023-07-20T14:44:54;22.30;60.60
77582;DHT22;66726;52.388;9.986;2023-07-20T14:47:26;22.30;60.70
77582;DHT22;66726;52.388;9.986;2023-07-20T14:50:00;22.30;58.90
77582;DHT22;66726;52.388;9.986;2023-07-20T14:52:34;22.20;59.40
77582;DHT22;66726;52.388;9.986;2023-07-20T14:55:16;22.60;60.90
77582;DHT22;66726;52.388;9.986;2023-07-20T14:57:49;22.60;58.90
77582;DHT22;66726;52.388;9.986;2023-07-20T15:00:22;22.50;58.50
77582;DHT22;66726;52.388;9.986;2023-07-20T15:02:54;22.50;60.40
77582;DHT22;66726;52.388;9.986;2023-07-20T15:05:26;22.40;58.40
77582;DHT22;66726;52.388;9.986;2023-07-20T15:07:59;22.40;59.30
77582;DHT22;66726;52.388;9.986;2023-07-20T15:10:33;22.40;58.60
77582;DHT22;66726;52.388;9.986;2023-07-20T15:13:05;22.50;59.10
77582;DHT22;66726;52.388;9.986;2023-07-20T15:15:37;22.80;58.90
77582;DHT22;66726;52.388;9.986;2023-07-20T15:18:10;22.80;56.60
77582;DHT22;66726;52.388;9.986;2023-07-20T15:20:42;22.80;58.20
77582;DHT22;66726;52.388;9.986;2023-07-20T15:23:17;22.70;57.90
77582;DHT22;66726;52.388;9.986;2023-07-20T15:25:49;22.70;58.80
77582;DHT22;66726;52.388;9.986;2023-07-20T15:28:21;22.90;58.50
77582;DHT22;66726;52.388;9.986;2023-07-20T15:30:59;23.00;57.40
77582;DHT22;66726;52.388;9.986;2023-07-20T15:33:33;23.00;57.40
77582;DHT22;66726;52.388;9.986;2023-07-20T15:36:06;22.90;57.60
77582;DHT22;66726;52.388;9.986;2023-07-20T15:38:39;22.70;56.70
77582;DHT22;66726;52.388;9.986;2023-07-20T15:41:12;22.80;57.10
77582;DHT22;66726;52.388;9.986;2023-07-20T15:43:45;22.70;56.70
77582;DHT22;66726;52.388;9.986;2023-07-20T15:46:44;22.80;57.30
77582;DHT22;66726;52.388;9.986;2023-07-20T15:49:18;22.70;57.20
77582;DHT22;66726;52.388;9.986;2023-07-20T15:51:51;22.80;56.90
77582;DHT22;66726;52.388;9.986;2023-07-20T15:54:27;22.80;56.40
77582;DHT22;66726;52.388;9.986;2023-07-20T15:56:59;22.70;56.90
77582;DHT22;66726;52.388;9.986;2023-07-20T15:59:30;22.70;57.00
77582;DHT22;66726;52.388;9.986;2023-07-20T16:02:03;22.80;57.00
77582;DHT22;66726;52.388;9.986;2023-07-20T16:04:35;22.80;57.00
77582;DHT22;66726;52.388;9.986;2023-07-20T16:07:07;22.80;56.90
77582;DHT22;66726;52.388;9.986;2023-07-20T16:09:40;22.80;57.20
77582;DHT22;66726;52.388;9.986;2023-07-20T16:12:14;22.80;56.80